Time;durP1;ratioP1;P1;durP2;ratioP2;P2;SDS_P1;SDS_P2;PMS_P1;PMS_P2;Temp;Humidity;BMP_temperature;BMP_pressure;BME280_temperature;BME280_humidity;BME280_pressure;Samples;Min_cycle;Max_cycle;Signal;HPM_P1;HPM_P2
2020/12/02 00:01:13;;;;;;;68.77;28.50;;;;;;;0.06;74.28;101248.34;1746619;81;21156;-81
2020/12/02 00:03:41;;;;;;;67.47;27.15;;;;;;;0.06;74.21;101255.30;1747120;81;21172;-82
2020/12/02 00:06:09;;;;;;;;;;;;;;;0.05;74.13;101252.30;1750485;81;21225;-81
2020/12/02 00:08:43;;;;;;;65.75;26.82;;;;;;;0.01;74.30;101251.59;1676996;83;46536;-83
2020/12/02 00:11:11;;;;;;;63.08;25.75;;;;;;;0.03;74.15;101259.32;1737481;81;21908;-82
2020/12/02 00:13:41;;;;;;;68.17;28.12;;;;;;;-0.03;74.20;101250.05;1736383;81;21642;-82
2020/12/02 00:16:08;;;;;;;66.87;28.57;;;;;;;-0.10;74.45;101253.31;1742434;81;21072;-83
2020/12/02 00:18:37;;;;;;;67.25;27.10;;;;;;;-0.17;74.64;101258.38;1741764;81;21196;-82
2020/12/02 00:21:05;;;;;;;60.70;27.10;;;;;;;-0.16;74.55;101254.02;1734805;80;21613;-82
2020/12/02 00:23:31;;;;;;;69.85;28.90;;;;;;;-0.25;74.98;101252.18;1711279;81;21523;-82
2020/12/02 00:25:57;;;;;;;72.78;28.92;;;;;;;-0.20;74.87;101257.19;1701858;83;21573;-84
2020/12/02 00:28:23;;;;;;;71.40;28.87;;;;;;;-0.23;74.96;101259.91;1737975;82;21142;-85
2020/12/02 00:30:49;;;;;;;69.27;29.87;;;;;;;-0.30;75.13;101263.63;1722556;82;20964;-84
2020/12/02 00:33:18;;;;;;;66.43;28.00;;;;;;;-0.29;75.06;101253.19;1734798;82;20948;-83
2020/12/02 00:35:44;;;;;;;73.57;29.63;;;;;;;-0.32;75.12;101253.77;1707668;83;21955;-80
2020/12/02 00:38:12;;;;;;;67.53;27.93;;;;;;;-0.38;75.37;101253.08;1723906;82;21054;-81
2020/12/02 00:40:44;;;;;;;68.80;29.07;;;;;;;-0.34;75.15;101256.86;1706576;83;21242;-82
2020/12/02 00:43:05;;;;;;;65.28;27.07;;;;;;;-0.36;75.32;101263.41;1706210;83;21203;-82
2020/12/02 00:45:31;;;;;;;65.63;28.40;;;;;;;-0.39;75.22;101255.30;1703920;82;21006;-81
2020/12/02 00:47:57;;;;;;;73.03;29.23;;;;;;;-0.38;75.34;101260.86;1714079;82;21257;-81
2020/12/02 00:50:23;;;;;;;69.83;29.37;;;;;;;-0.43;75.57;101261.97;1705492;82;20978;-81
2020/12/02 00:53:04;;;;;;;72.97;30.25;;;;;;;-0.48;75.77;101262.14;1703051;82;21201;-82
2020/12/02 00:55:30;;;;;;;73.00;29.77;;;;;;;-0.51;76.37;101263.98;1706660;82;21609;-82
2020/12/02 00:57:56;;;;;;;70.10;29.17;;;;;;;-0.59;76.31;101260.37;1713215;82;21015;-81
2020/12/02 01:00:22;;;;;;;75.37;29.63;;;;;;;-0.46;75.98;101255.13;1708569;82;21267;-82
2020/12/02 01:03:17;;;;;;;66.37;27.40;;;;;;;-0.43;75.73;101255.02;1706353;82;20990;-81
2020/12/02 01:05:45;;;;;;;64.47;26.25;;;;;;;-0.48;75.66;101253.05;1673532;82;21676;-81
2020/12/02 01:08:32;;;;;;;63.65;26.52;;;;;;;-0.43;75.49;101256.77;1689700;82;21209;-82
2020/12/02 01:11:20;;;;;;;65.70;27.82;;;;;;;-0.56;75.69;101254.64;1699265;82;21204;-81
2020/12/02 01:20:09;;;;;;;59.20;25.47;;;;;;;-0.47;75.20;101247.41;1529333;88;22405;-82
2020/12/02 01:22:42;;;;;;;63.38;27.95;;;;;;;-0.41;75.06;101255.79;1677388;82;21177;-82
2020/12/02 01:25:23;;;;;;;69.55;27.65;;;;;;;-0.53;75.29;101256.25;1702223;82;21208;-83
2020/12/02 01:27:58;;;;;;;57.40;26.17;;;;;;;-0.57;75.39;101254.70;1706055;82;21219;-81
2020/12/02 01:30:24;;;;;;;57.38;25.37;;;;;;;-0.52;75.18;101259.72;1709702;82;21188;-82
2020/12/02 01:32:50;;;;;;;61.37;26.40;;;;;;;-0.58;75.21;101262.08;1698518;83;21034;-82
2020/12/02 01:35:20;;;;;;;60.30;25.83;;;;;;;-0.53;75.06;101254.13;1696521;82;20934;-82
2020/12/02 01:37:46;;;;;;;56.58;25.88;;;;;;;-0.61;75.20;101255.70;1712135;82;21240;-82
2020/12/02 01:40:29;;;;;;;64.60;26.63;;;;;;;-0.60;75.09;101247.86;1701191;83;21950;-82
2020/12/02 01:43:01;;;;;;;67.50;26.37;;;;;;;-0.56;74.97;101251.17;1677831;84;22221;-82
2020/12/02 01:45:42;;;;;;;60.65;24.77;;;;;;;-0.74;75.19;101253.56;1703595;82;21245;-82
2020/12/02 01:48:47;;;;;;;56.18;24.27;;;;;;;-0.76;75.43;101251.48;1702061;82;21181;-82
2020/12/02 01:51:42;;;;;;;60.28;24.98;;;;;;;-0.69;75.23;101244.77;1624240;87;21165;-81
2020/12/02 01:54:12;;;;;;;58.85;25.12;;;;;;;-0.80;75.48;101240.81;1632342;87;21715;-81
2020/12/02 01:57:00;;;;;;;59.00;25.90;;;;;;;-0.82;75.57;101242.63;1650202;82;21225;-82
2020/12/02 02:00:10;;;;;;;61.58;26.10;;;;;;;-0.82;75.53;101237.44;1696386;82;21214;-81
2020/12/02 02:03:09;;;;;;;58.55;25.10;;;;;;;-0.79;75.27;101236.50;1692774;82;21589;-82
2020/12/02 02:05:55;;;;;;;55.78;23.38;;;;;;;-0.82;75.25;101232.26;1701132;82;21188;-81
2020/12/02 02:08:27;;;;;;;50.08;22.67;;;;;;;-0.82;75.14;101233.55;1706500;82;21177;-82
2020/12/02 02:10:53;;;;;;;60.17;24.80;;;;;;;-0.89;75.27;101232.53;1707965;82;21585;-82
2020/12/02 02:13:53;;;;;;;54.97;25.00;;;;;;;-0.95;75.48;101233.16;1711407;82;20970;-82
2020/12/02 02:16:27;;;;;;;64.32;23.90;;;;;;;-0.97;75.54;101227.16;1674856;84;21170;-81
2020/12/02 02:18:53;;;;;;;53.70;23.47;;;;;;;-0.96;75.39;101225.44;1689401;83;21136;-82
2020/12/02 02:21:26;;;;;;;59.47;24.13;;;;;;;-1.00;75.33;101219.96;1702621;82;21200;-82
2020/12/02 02:23:52;;;;;;;58.55;24.92;;;;;;;-0.95;75.17;101215.44;1718513;82;21172;-82
2020/12/02 02:26:32;;;;;;;52.93;23.40;;;;;;;-1.05;75.23;101215.41;1714563;82;21073;-82
2020/12/02 02:29:22;;;;;;;59.38;26.12;;;;;;;-1.04;75.24;101226.14;1699930;83;21197;-81
2020/12/02 02:32:10;;;;;;;57.33;23.02;;;;;;;-1.12;75.29;101211.73;1681355;84;21192;-82
2020/12/02 02:34:38;;;;;;;55.17;22.98;;;;;;;-1.10;75.21;101220.29;1745816;81;21208;-82
2020/12/02 02:37:06;;;;;;;51.40;22.40;;;;;;;-1.14;75.30;101223.87;1718763;81;21220;-82
2020/12/02 02:39:32;;;;;;;;;;;;;;;-1.24;75.48;101206.98;1756636;81;21200;-82
2020/12/02 02:42:02;;;;;;;49.27;20.53;;;;;;;-1.21;75.48;101217.24;1753250;80;20289;-82
2020/12/02 02:44:28;;;;;;;51.30;22.05;;;;;;;-1.21;75.36;101216.37;1752724;81;21618;-82
2020/12/02 02:46:54;;;;;;;50.43;21.80;;;;;;;-1.30;75.52;101213.22;1741181;81;21270;-82
2020/12/02 02:49:20;;;;;;;51.43;21.07;;;;;;;-1.28;75.54;101217.89;1680170;84;20988;-83
2020/12/02 02:51:46;;;;;;;57.87;24.17;;;;;;;-1.29;75.73;101224.42;1730760;81;20927;-81
2020/12/02 02:54:13;;;;;;;57.65;24.10;;;;;;;-1.39;75.93;101213.53;1738247;81;21204;-82
2020/12/02 02:56:39;;;;;;;52.23;23.30;;;;;;;-1.25;75.85;101222.12;1736915;80;21136;-82
2020/12/02 02:59:05;;;;;;;54.60;22.97;;;;;;;-1.31;75.79;101215.86;1742719;81;22013;-82
2020/12/02 03:01:31;;;;;;;53.23;22.67;;;;;;;-1.42;75.91;101217.98;1744621;81;21184;-82
2020/12/02 03:04:17;;;;;;;54.00;24.50;;;;;;;-1.40;75.95;101220.06;1712950;81;21618;-82
2020/12/02 03:06:42;;;;;;;49.80;21.33;;;;;;;-1.49;76.22;101215.61;1727284;81;21160;-82
2020/12/02 03:09:11;;;;;;;51.37;22.13;;;;;;;-1.54;76.29;101217.52;1738992;81;21043;-82
2020/12/02 03:11:37;;;;;;;54.58;23.55;;;;;;;-1.52;76.32;101218.30;1717221;81;21175;-81
2020/12/02 03:14:03;;;;;;;49.08;22.20;;;;;;;-1.63;76.65;101216.53;1661252;84;21231;-82
2020/12/02 03:16:41;;;;;;;50.37;22.90;;;;;;;-1.76;76.79;101228.19;1744266;81;20918;-82
2020/12/02 03:19:17;;;;;;;46.18;20.68;;;;;;;-1.92;77.30;101229.14;1738061;81;21174;-82
2020/12/02 03:21:43;;;;;;;44.80;19.80;;;;;;;-1.71;77.17;101226.28;1723095;81;21208;-81
2020/12/02 03:24:09;;;;;;;45.20;20.40;;;;;;;-1.82;77.36;101228.80;1751748;81;22004;-81
2020/12/02 03:26:36;;;;;;;45.60;20.37;;;;;;;-1.75;77.27;101229.89;1693949;83;20960;-82
2020/12/02 03:29:02;;;;;;;48.85;20.40;;;;;;;-1.64;77.04;101223.89;1727112;81;21208;-82
2020/12/02 03:31:27;;;;;;;42.90;19.48;;;;;;;-1.64;77.09;101229.08;1672874;84;21226;-82
2020/12/02 03:33:53;;;;;;;47.27;20.20;;;;;;;-1.50;76.60;101221.67;1734765;81;20931;-82
2020/12/02 03:36:19;;;;;;;49.87;22.50;;;;;;;-1.59;76.61;101221.98;1688879;84;21951;-82
2020/12/02 03:38:46;;;;;;;54.20;23.67;;;;;;;-1.64;76.89;101227.78;1729801;81;21746;-82
2020/12/02 03:41:11;;;;;;;44.53;20.77;;;;;;;-1.69;76.88;101216.28;1676182;84;21614;-82
2020/12/02 03:43:37;;;;;;;45.97;20.67;;;;;;;-1.62;76.61;101224.68;1731031;81;21139;-82
2020/12/02 03:46:03;;;;;;;43.03;18.63;;;;;;;-1.64;76.84;101222.59;1678122;84;20984;-81
2020/12/02 03:48:29;;;;;;;44.30;20.47;;;;;;;-1.64;76.44;101224.73;1740227;81;21193;-82
2020/12/02 03:50:55;;;;;;;42.60;20.03;;;;;;;-1.76;76.69;101217.37;1688634;84;20953;-81
2020/12/02 03:53:20;;;;;;;34.97;16.83;;;;;;;-1.70;76.64;101215.03;1744044;81;21017;-81
2020/12/02 03:55:47;;;;;;;43.50;19.40;;;;;;;-1.70;76.34;101209.86;1735603;81;20959;-81
2020/12/02 03:58:12;;;;;;;39.45;19.45;;;;;;;-1.72;76.53;101220.27;1739257;81;21134;-81
2020/12/02 04:00:38;;;;;;;40.40;18.37;;;;;;;-1.86;77.01;101222.01;1732485;81;21588;-82
2020/12/02 04:03:05;;;;;;;44.60;21.00;;;;;;;-1.84;76.99;101226.68;1744985;81;21029;-82
2020/12/02 04:05:30;;;;;;;47.80;20.23;;;;;;;-1.80;76.93;101223.56;1691551;84;21132;-82
2020/12/02 04:07:56;;;;;;;39.43;19.10;;;;;;;-1.85;76.97;101221.13;1691923;83;21193;-82
2020/12/02 04:10:22;;;;;;;43.10;18.87;;;;;;;-1.74;76.51;101222.50;1680062;84;21049;-82
2020/12/02 04:12:48;;;;;;;39.00;17.90;;;;;;;-1.74;76.55;101218.19;1736921;81;21053;-82
2020/12/02 04:15:15;;;;;;;39.25;18.23;;;;;;;-1.86;76.56;101215.54;1675777;84;21193;-82
2020/12/02 04:17:41;;;;;;;43.15;19.55;;;;;;;-1.88;76.59;101219.93;1742086;81;21709;-82
2020/12/02 04:20:07;;;;;;;41.50;20.32;;;;;;;-1.74;76.32;101216.02;1688347;84;21187;-82
2020/12/02 04:22:33;;;;;;;38.67;18.30;;;;;;;-1.65;76.09;101215.72;1695850;83;20939;-82
2020/12/02 04:24:59;;;;;;;41.00;19.03;;;;;;;-1.58;75.91;101212.50;1682965;85;21617;-82
2020/12/02 04:27:25;;;;;;;37.38;18.57;;;;;;;-1.52;75.74;101211.83;1676818;85;21190;-82
2020/12/02 04:29:51;;;;;;;43.93;20.40;;;;;;;-1.53;75.27;101214.01;1673009;85;21133;-82
2020/12/02 04:32:17;;;;;;;39.47;19.47;;;;;;;-1.57;75.58;101213.73;1675945;85;21501;-82
2020/12/02 04:34:42;;;;;;;39.70;19.73;;;;;;;-1.59;75.83;101215.52;1681142;85;20987;-82
2020/12/02 04:37:08;;;;;;;38.33;19.07;;;;;;;-1.49;75.73;101220.79;1671916;85;21213;-82
2020/12/02 04:39:34;;;;;;;40.90;19.60;;;;;;;-1.42;75.27;101218.83;1668603;85;21015;-82
2020/12/02 04:41:59;;;;;;;39.70;18.97;;;;;;;-1.37;75.30;101210.89;1664486;85;21093;-82
2020/12/02 04:44:25;;;;;;;43.93;20.70;;;;;;;-1.29;75.15;101216.64;1678840;85;21125;-82
2020/12/02 04:46:55;;;;;;;41.90;20.90;;;;;;;-1.24;74.97;101221.23;1675437;85;21049;-83
2020/12/02 04:49:28;;;;;;;39.50;20.02;;;;;;;-1.15;74.87;101222.21;1670699;85;21984;-83
2020/12/02 04:52:00;;;;;;;46.35;22.10;;;;;;;-1.02;74.50;101221.77;1671903;85;21260;-83
2020/12/02 04:54:26;;;;;;;40.88;18.65;;;;;;;-1.08;74.21;101225.42;1668186;85;21180;-82
2020/12/02 04:56:52;;;;;;;39.05;18.07;;;;;;;-1.20;74.31;101218.91;1664896;83;21203;-83
2020/12/02 04:59:18;;;;;;;38.23;19.13;;;;;;;-1.08;74.41;101217.64;1668268;85;21022;-82
2020/12/02 05:01:54;;;;;;;34.97;18.37;;;;;;;-0.97;74.16;101214.66;1677904;85;21182;-82
2020/12/02 05:04:25;;;;;;;37.13;18.40;;;;;;;-0.95;74.04;101207.66;1673491;84;21173;-82
2020/12/02 05:07:09;;;;;;;40.85;19.48;;;;;;;-0.98;74.18;101212.96;1663296;85;21685;-83
2020/12/02 05:09:36;;;;;;;39.40;19.20;;;;;;;-0.92;74.21;101214.03;1664216;85;21205;-82
2020/12/02 05:12:13;;;;;;;;;;;;;;;-0.96;73.98;101213.31;1685385;85;21190;-83
2020/12/02 05:14:42;;;;;;;37.13;18.60;;;;;;;-0.83;73.98;101220.19;1677557;85;21258;-82
2020/12/02 05:17:19;;;;;;;40.50;17.80;;;;;;;-0.89;74.05;101212.63;1671851;84;21697;-82
2020/12/02 05:19:50;;;;;;;34.98;17.52;;;;;;;-0.91;73.74;101217.87;1678823;85;28360;-83
2020/12/02 05:22:17;;;;;;;34.80;18.35;;;;;;;-0.90;73.75;101218.73;1680025;84;21266;-82
2020/12/02 05:24:48;;;;;;;35.40;17.70;;;;;;;-0.95;74.01;101225.81;1658975;84;21226;-82
2020/12/02 05:27:20;;;;;;;32.78;16.57;;;;;;;-0.83;73.72;101221.48;1682802;84;21258;-83
2020/12/02 05:29:54;;;;;;;33.23;16.23;;;;;;;-0.77;73.35;101225.14;1716610;81;21034;-82
2020/12/02 05:32:25;;;;;;;30.23;14.98;;;;;;;-0.68;73.39;101225.70;1726108;81;21183;-83
2020/12/02 05:34:51;;;;;;;33.58;17.10;;;;;;;-0.76;73.19;101224.25;1722364;81;21161;-83
2020/12/02 05:37:34;;;;;;;33.57;16.73;;;;;;;-0.80;73.16;101224.42;1725866;82;21034;-83
2020/12/02 05:40:03;;;;;;;30.72;15.63;;;;;;;-0.74;73.38;101214.66;1723681;81;21196;-82
2020/12/02 05:42:41;;;;;;;31.07;15.95;;;;;;;-0.81;72.89;101220.99;1736614;81;21199;-82
2020/12/02 05:45:30;;;;;;;31.42;15.70;;;;;;;-0.75;72.92;101218.14;1732589;82;21059;-83
2020/12/02 05:47:56;;;;;;;29.37;15.63;;;;;;;-0.67;72.83;101212.67;1710874;82;21151;-82
2020/12/02 05:50:24;;;;;;;31.67;16.33;;;;;;;-0.68;72.45;101216.61;1721528;81;21028;-83
2020/12/02 05:53:17;;;;;;;31.12;15.10;;;;;;;-0.57;72.56;101223.56;1702376;83;22318;-83
2020/12/02 05:55:43;;;;;;;34.13;16.70;;;;;;;-0.49;72.27;101223.27;1718088;82;21102;-83
2020/12/02 05:58:17;;;;;;;30.77;15.87;;;;;;;-0.44;72.22;101220.88;1726869;81;21469;-83
2020/12/02 06:00:43;;;;;;;32.73;17.45;;;;;;;-0.43;71.83;101226.47;1733533;81;21231;-82
2020/12/02 06:03:14;;;;;;;30.27;15.17;;;;;;;-0.51;71.88;101225.93;1681015;83;21271;-81
2020/12/02 06:05:41;;;;;;;32.53;16.55;;;;;;;-0.49;72.04;101226.70;1688542;84;22052;-82
2020/12/02 06:08:07;;;;;;;35.00;16.15;;;;;;;-0.42;72.17;101225.58;1714549;82;21253;-82
2020/12/02 06:10:47;;;;;;;31.02;16.40;;;;;;;-0.48;71.72;101232.30;1716569;82;21101;-82
2020/12/02 06:13:41;;;;;;;33.40;16.75;;;;;;;-0.47;71.74;101230.08;1719428;82;21189;-81
2020/12/02 06:16:28;;;;;;;32.63;16.62;;;;;;;-0.49;71.50;101232.36;1705319;81;21217;-82
2020/12/02 06:18:53;;;;;;;30.62;15.83;;;;;;;-0.55;71.52;101229.53;1669690;84;21421;-83
2020/12/02 06:21:39;;;;;;;33.60;16.90;;;;;;;-0.61;71.38;101237.55;1714443;82;21720;-81
2020/12/02 06:24:05;;;;;;;29.40;15.13;;;;;;;-0.81;71.84;101233.95;1668686;84;21230;-82
2020/12/02 06:26:38;;;;;;;27.63;14.77;;;;;;;-0.73;71.66;101241.42;1730137;81;20984;-83
2020/12/02 06:29:04;;;;;;;28.50;15.20;;;;;;;-0.77;71.40;101236.81;1733802;81;21302;-80
2020/12/02 06:31:30;;;;;;;32.15;15.38;;;;;;;-0.75;71.68;101243.24;1737709;81;21229;-81
2020/12/02 06:33:57;;;;;;;31.37;16.07;;;;;;;-0.74;71.78;101240.59;1739194;81;21146;-82
2020/12/02 06:36:29;;;;;;;30.90;15.73;;;;;;;-0.78;71.82;101236.44;1731808;81;21163;-84
2020/12/02 06:39:16;;;;;;;34.13;16.52;;;;;;;-0.62;71.75;101238.44;1727847;81;21209;-82
2020/12/02 06:41:42;;;;;;;31.65;17.07;;;;;;;-0.69;71.44;101240.89;1731262;81;21141;-82
2020/12/02 06:44:17;;;;;;;28.55;15.18;;;;;;;-0.72;71.39;101247.86;1733675;81;21153;-81
2020/12/02 06:47:18;;;;;;;30.68;15.78;;;;;;;-0.62;71.22;101252.70;1735422;81;21133;-81
2020/12/02 06:49:44;;;;;;;33.40;17.10;;;;;;;-0.72;71.42;101249.16;1737733;81;21165;-81
2020/12/02 06:52:13;;;;;;;31.53;16.43;;;;;;;-0.64;71.09;101246.73;1727069;81;20939;-80
2020/12/02 06:54:41;;;;;;;32.40;17.10;;;;;;;-0.51;70.98;101249.28;1737342;81;21146;-81
2020/12/02 06:57:27;;;;;;;33.58;16.57;;;;;;;-0.61;70.73;101250.52;1728260;81;21213;-82
2020/12/02 06:59:58;;;;;;;29.82;15.95;;;;;;;-0.62;70.73;101252.70;1733491;81;21644;-82
2020/12/02 07:02:47;;;;;;;32.88;17.80;;;;;;;-0.62;70.89;101252.70;1738914;81;21192;-82
2020/12/02 07:05:36;;;;;;;31.50;15.48;;;;;;;-0.60;70.99;101256.11;1738116;81;21170;-80
2020/12/02 07:08:21;;;;;;;31.15;17.17;;;;;;;-0.64;70.87;101253.22;1725723;81;21571;-81
2020/12/02 07:11:13;;;;;;;30.32;16.02;;;;;;;-0.75;71.02;101245.38;1708795;80;21269;-81
2020/12/02 07:13:43;;;;;;;31.35;16.97;;;;;;;-0.68;71.21;101242.12;1743019;81;21288;-81
2020/12/02 07:16:28;;;;;;;30.77;16.80;;;;;;;-0.61;70.69;101244.03;1736116;81;21193;-83
2020/12/02 07:19:09;;;;;;;31.57;17.02;;;;;;;-0.66;70.80;101255.03;1735485;81;21157;-82
2020/12/02 07:21:51;;;;;;;31.82;16.10;;;;;;;-0.56;70.77;101251.17;1729124;81;21599;-82
2020/12/02 07:24:27;;;;;;;35.13;18.40;;;;;;;-0.47;70.60;101254.73;1734396;81;21809;-81
2020/12/02 07:26:53;;;;;;;30.92;16.80;;;;;;;-0.53;70.64;101257.55;1726509;81;21648;-81
2020/12/02 07:29:22;;;;;;;37.40;17.57;;;;;;;-0.58;70.76;101250.40;1740850;81;21035;-81
2020/12/02 07:31:57;;;;;;;29.37;16.73;;;;;;;-0.51;70.52;101251.88;1745076;81;21161;-81
2020/12/02 07:34:23;;;;;;;27.30;14.98;;;;;;;-0.52;70.60;101263.14;1737164;81;21614;-81
2020/12/02 07:36:51;;;;;;;34.97;17.00;;;;;;;-0.40;70.49;101260.09;1738558;81;21193;-81
2020/12/02 07:39:21;;;;;;;;;;;;;;;-0.33;70.12;101257.27;1715322;81;21795;-81
2020/12/02 07:41:55;;;;;;;27.98;15.15;;;;;;;-0.32;70.16;101250.72;1701737;83;20156;-81
2020/12/02 07:44:21;;;;;;;31.35;16.20;;;;;;;-0.34;70.29;101246.48;1712032;81;21224;-82
2020/12/02 07:46:47;;;;;;;37.10;18.73;;;;;;;-0.33;69.97;101249.48;1747707;80;20939;-83
2020/12/02 07:49:13;;;;;;;35.30;18.95;;;;;;;-0.27;69.87;101255.27;1750158;81;21982;-82
2020/12/02 07:51:46;;;;;;;40.70;19.17;;;;;;;-0.26;69.97;101252.23;1756407;81;21108;-82
2020/12/02 07:54:19;;;;;;;33.75;18.80;;;;;;;-0.30;69.79;101259.73;1747090;81;21637;-81
2020/12/02 07:56:47;;;;;;;35.15;19.77;;;;;;;-0.23;69.79;101253.42;1717177;81;21184;-82
2020/12/02 07:59:23;;;;;;;;;;;;;;;-0.17;69.69;101259.67;1746851;81;21167;-81
2020/12/02 08:02:06;;;;;;;34.50;18.25;;;;;;;-0.11;69.89;101254.23;1680988;83;21343;-82
2020/12/02 08:04:50;;;;;;;37.42;19.07;;;;;;;-0.12;69.95;101256.43;1747350;81;21176;-81
2020/12/02 08:07:15;;;;;;;38.88;18.35;;;;;;;-0.04;69.87;101261.33;1742472;81;21585;-81
2020/12/02 08:09:46;;;;;;;37.83;18.90;;;;;;;0.02;69.73;101261.08;1719119;82;20975;-81
2020/12/02 08:12:28;;;;;;;39.18;20.43;;;;;;;-0.02;69.41;101256.48;1739272;80;21146;-81
2020/12/02 08:15:08;;;;;;;36.93;19.00;;;;;;;-0.16;69.30;101241.87;1742667;81;21185;-81
2020/12/02 08:17:34;;;;;;;35.63;19.70;;;;;;;-0.10;69.19;101249.42;1742719;81;21129;-81
2020/12/02 08:20:01;;;;;;;36.57;19.07;;;;;;;-0.12;69.05;101251.23;1742588;81;21076;-81
2020/12/02 08:22:48;;;;;;;36.40;19.17;;;;;;;-0.15;68.88;101250.52;1746843;81;21162;-79
2020/12/02 08:25:31;;;;;;;35.92;19.17;;;;;;;-0.16;68.80;101253.55;1747622;81;21205;-82
2020/12/02 08:28:00;;;;;;;36.05;18.57;;;;;;;-0.21;68.69;101257.63;1751687;81;21172;-81
2020/12/02 08:30:29;;;;;;;34.50;17.85;;;;;;;-0.33;68.84;101252.06;1754686;81;21208;-81
2020/12/02 08:33:03;;;;;;;31.17;17.15;;;;;;;-0.33;68.84;101252.06;1754562;81;21144;-80
2020/12/02 08:35:37;;;;;;;33.58;17.25;;;;;;;-0.46;68.82;101264.21;1749580;81;21750;-80
2020/12/02 08:38:03;;;;;;;30.80;17.70;;;;;;;-0.49;68.59;101244.87;1755942;81;21200;-80
2020/12/02 08:40:41;;;;;;;35.00;18.73;;;;;;;-0.49;68.59;101244.87;1757159;81;21242;-81
2020/12/02 08:43:33;;;;;;;;;;;;;;;-0.48;68.93;101254.36;1755268;81;21489;-80
2020/12/02 08:46:16;;;;;;;32.33;17.62;;;;;;;-0.51;68.93;101263.55;1752687;80;20292;-81
2020/12/02 08:48:43;;;;;;;35.70;18.73;;;;;;;-0.47;68.91;101263.81;1751533;80;21058;-81
2020/12/02 08:51:16;;;;;;;35.17;18.65;;;;;;;-0.32;68.55;101264.98;1752076;81;21186;-81
2020/12/02 08:53:42;;;;;;;34.98;18.48;;;;;;;-0.29;68.39;101261.44;1753081;81;21069;-80
2020/12/02 08:56:33;;;;;;;35.80;19.65;;;;;;;-0.25;68.32;101261.27;1757211;80;21216;-81
2020/12/02 08:59:01;;;;;;;33.70;18.48;;;;;;;-0.13;68.28;101246.94;1749996;80;21188;-81
2020/12/02 09:01:26;;;;;;;34.50;18.98;;;;;;;-0.13;68.03;101246.94;1754915;80;21264;-80
2020/12/02 09:03:52;;;;;;;31.80;17.63;;;;;;;-0.08;68.18;101254.55;1757216;81;21188;-79
2020/12/02 09:06:20;;;;;;;32.67;17.00;;;;;;;-0.02;67.88;101247.39;1748479;81;21046;-81
2020/12/02 09:08:46;;;;;;;36.48;18.02;;;;;;;-0.11;67.67;101245.16;1758631;81;28548;-82
2020/12/02 09:11:12;;;;;;;37.10;16.90;;;;;;;-0.04;67.91;101240.55;1741304;80;21135;-83
2020/12/02 09:13:38;;;;;;;31.82;17.30;;;;;;;0.10;67.75;101240.00;1745658;80;21176;-82
2020/12/02 09:16:03;;;;;;;30.80;17.27;;;;;;;0.21;67.91;101235.20;1752322;80;22232;-81
2020/12/02 09:18:29;;;;;;;30.80;17.80;;;;;;;0.25;67.51;101232.89;1759656;81;21161;-81
2020/12/02 09:20:55;;;;;;;34.33;17.47;;;;;;;0.26;67.06;101228.06;1741304;81;21072;-81
2020/12/02 09:23:21;;;;;;;36.70;19.20;;;;;;;0.29;66.86;101224.04;1748419;80;21030;-81
2020/12/02 09:25:46;;;;;;;33.77;18.33;;;;;;;0.37;66.76;101220.29;1750012;80;20973;-81
2020/12/02 09:28:12;;;;;;;31.73;18.30;;;;;;;0.48;67.03;101216.77;1755373;80;21005;-81
2020/12/02 09:30:38;;;;;;;36.10;18.27;;;;;;;0.48;66.42;101208.98;1756787;81;22005;-81
2020/12/02 09:33:04;;;;;;;36.13;19.60;;;;;;;0.49;66.44;101210.67;1745119;80;21288;-81
2020/12/02 09:35:30;;;;;;;35.03;18.80;;;;;;;0.50;66.18;101213.21;1751754;80;21052;-82
2020/12/02 09:37:55;;;;;;;34.23;18.70;;;;;;;0.53;66.10;101218.28;1743197;81;21055;-80
2020/12/02 09:40:21;;;;;;;35.90;19.47;;;;;;;0.57;66.43;101211.19;1751212;80;21604;-80
2020/12/02 09:43:17;;;;;;;36.98;21.05;;;;;;;0.60;66.20;101211.05;1745562;81;22049;-81
2020/12/02 09:46:05;;;;;;;37.28;20.02;;;;;;;0.31;66.24;101181.11;1746910;81;21213;-82
2020/12/02 09:48:31;;;;;;;36.90;19.52;;;;;;;0.31;66.24;101181.11;1749309;81;21195;-80
2020/12/02 09:50:57;;;;;;;37.23;18.60;;;;;;;0.33;66.28;101197.50;1744274;81;21019;-83
2020/12/02 09:53:33;;;;;;;39.65;20.55;;;;;;;0.40;66.40;101194.17;1691026;81;21211;-83
2020/12/02 09:55:59;;;;;;;36.15;19.17;;;;;;;0.40;66.41;101187.22;1738500;80;21342;-83
2020/12/02 09:58:25;;;;;;;35.43;19.03;;;;;;;0.45;66.28;101181.83;1747226;80;21111;-81
2020/12/02 10:00:56;;;;;;;40.12;20.35;;;;;;;0.41;66.14;101178.98;1755652;81;21565;-83
2020/12/02 10:04:10;;;;;;;40.78;21.12;;;;;;;0.46;66.62;101164.87;1721744;81;21229;-82
2020/12/02 10:06:44;;;;;;;41.48;19.92;;;;;;;0.45;66.07;101166.23;1694004;83;21722;-82
2020/12/02 10:09:43;;;;;;;34.88;20.00;;;;;;;0.49;65.69;101157.41;1746375;81;21849;-88
2020/12/02 10:12:26;;;;;;;36.88;19.62;;;;;;;0.49;65.69;101157.41;1744800;81;21843;-81
2020/12/02 10:15:27;;;;;;;36.65;19.82;;;;;;;0.39;65.80;101142.67;1736904;80;21183;-83
2020/12/02 10:18:22;;;;;;;35.23;18.55;;;;;;;0.46;65.97;101150.58;1740298;80;21216;-82
2020/12/02 10:20:49;;;;;;;33.63;18.73;;;;;;;0.50;65.72;101150.01;1739678;81;21235;-82
2020/12/02 10:23:40;;;;;;;32.83;17.80;;;;;;;0.50;65.81;101140.91;1748855;81;21163;-83
2020/12/02 10:26:23;;;;;;;34.27;17.98;;;;;;;0.57;65.50;101128.02;1744713;80;21215;-82
2020/12/02 10:28:58;;;;;;;35.10;17.98;;;;;;;0.63;65.62;101138.14;1742780;80;21669;-81
2020/12/02 10:31:53;;;;;;;39.20;20.37;;;;;;;0.47;65.57;101118.95;1740143;81;21207;-85
2020/12/02 10:34:30;;;;;;;37.33;19.50;;;;;;;0.47;65.57;101118.95;1734948;81;21228;-83
2020/12/02 10:37:03;;;;;;;;;;;;;;;0.62;65.40;101134.31;1739988;81;21305;-83
2020/12/02 10:39:31;;;;;;;32.53;17.17;;;;;;;0.56;64.69;101131.55;1740574;81;20278;-84
2020/12/02 10:42:25;;;;;;;34.18;18.12;;;;;;;0.56;64.69;101131.55;1747272;81;21220;-85
2020/12/02 10:45:05;;;;;;;31.93;17.95;;;;;;;0.62;64.46;101127.38;1748451;81;21174;-82
2020/12/02 10:48:16;;;;;;;31.55;17.60;;;;;;;0.59;64.00;101134.02;1754069;80;21169;-84
2020/12/02 10:50:43;;;;;;;32.08;17.37;;;;;;;0.66;64.09;101125.02;1750943;80;22740;-80
2020/12/02 10:53:16;;;;;;;30.85;16.57;;;;;;;0.68;63.70;101128.41;1750750;80;21732;-79
2020/12/02 10:55:42;;;;;;;34.80;18.00;;;;;;;0.71;64.07;101116.58;1752752;80;21623;-81
2020/12/02 10:58:31;;;;;;;33.47;18.37;;;;;;;0.71;64.07;101116.58;1747409;81;22969;-81
2020/12/02 11:01:00;;;;;;;34.33;17.92;;;;;;;0.80;63.96;101118.36;1738848;81;21538;-81
2020/12/02 11:03:32;;;;;;;32.80;18.45;;;;;;;0.78;64.00;101104.56;1742491;81;21342;-81
2020/12/02 11:06:06;;;;;;;31.77;17.62;;;;;;;0.72;63.63;101084.91;1749488;80;21130;-81
2020/12/02 11:09:04;;;;;;;32.98;17.95;;;;;;;0.83;63.41;101102.16;1748178;81;21669;-81
2020/12/02 11:12:01;;;;;;;35.43;19.55;;;;;;;0.83;63.20;101102.63;1749432;81;21208;-80
2020/12/02 11:14:48;;;;;;;;;;;;;;;0.70;62.99;101099.28;1744116;80;21203;-81
2020/12/02 11:17:28;;;;;;;30.60;16.00;;;;;;;0.65;62.81;101089.98;1750216;81;21315;-82
2020/12/02 11:20:17;;;;;;;33.02;17.92;;;;;;;0.69;63.08;101094.98;1748632;80;21585;-82
2020/12/02 11:23:03;;;;;;;34.25;18.60;;;;;;;0.59;62.74;101097.63;1652997;80;21219;-80
2020/12/02 11:25:56;;;;;;;33.13;18.92;;;;;;;0.53;62.90;101093.53;1746568;81;21210;-79
2020/12/02 11:28:21;;;;;;;33.58;19.23;;;;;;;0.51;63.23;101095.80;1749277;81;21554;-79
2020/12/02 11:30:47;;;;;;;33.13;20.07;;;;;;;0.56;63.03;101091.27;1744789;81;21258;-80
2020/12/02 11:33:40;;;;;;;33.03;19.37;;;;;;;0.55;63.33;101083.06;1748201;81;20955;-80
2020/12/02 11:36:36;;;;;;;36.55;20.23;;;;;;;0.51;63.35;101086.70;1742634;81;21224;-80
2020/12/02 11:39:27;;;;;;;40.65;20.88;;;;;;;0.56;63.34;101077.41;1734926;81;21200;-81
2020/12/02 11:42:00;;;;;;;43.52;21.33;;;;;;;0.59;63.38;101079.43;1731326;81;21509;-79
2020/12/02 11:44:41;;;;;;;38.10;22.10;;;;;;;0.60;63.35;101078.50;1706103;81;21227;-81
2020/12/02 11:47:50;;;;;;;36.90;21.57;;;;;;;0.60;63.33;101072.00;1738489;81;21135;-82
2020/12/02 11:50:23;;;;;;;34.03;20.02;;;;;;;0.58;63.33;101067.80;1731937;81;21186;-80